Time;durP1;ratioP1;P1;durP2;ratioP2;P2;SDS_P1;SDS_P2;PMS_P1;PMS_P2;Temp;Humidity;BMP_temperature;BMP_pressure;BME280_temperature;BME280_humidity;BME280_pressure;Samples;Min_cycle;Max_cycle;Signal;HPM_P1;HPM_P2
2021/11/30 00:00:59;;;;;;;355.87;340.50;;;5.00;99.90;;;;;;4373244;32;20167;-61
2021/11/30 00:03:26;;;;;;;363.23;347.97;;;5.00;99.90;;;;;;4361873;33;20497;-61
2021/11/30 00:05:53;;;;;;;361.70;346.83;;;5.00;99.90;;;;;;4363561;32;20162;-61
2021/11/30 00:08:24;;;;;;;347.70;333.13;;;5.00;99.90;;;;;;4361962;33;20145;-61
2021/11/30 00:10:49;;;;;;;360.27;344.70;;;4.90;99.90;;;;;;4364194;32;20145;-61
2021/11/30 00:13:19;;;;;;;371.83;356.23;;;4.90;99.90;;;;;;4378512;32;20151;-60
2021/11/30 00:15:48;;;;;;;373.33;356.97;;;4.90;99.90;;;;;;4374797;32;20163;-60
2021/11/30 00:18:16;;;;;;;378.73;362.37;;;4.80;99.90;;;;;;4377188;32;20168;-60
2021/11/30 00:20:44;;;;;;;371.50;355.73;;;4.80;99.90;;;;;;4378307;32;20198;-61
2021/11/30 00:23:12;;;;;;;372.27;356.60;;;4.80;99.90;;;;;;4376316;32;20468;-61
2021/11/30 00:25:41;;;;;;;366.73;351.00;;;4.70;99.90;;;;;;4378220;32;20242;-60
2021/11/30 00:28:09;;;;;;;378.83;362.40;;;4.70;99.90;;;;;;4374971;32;20180;-61
2021/11/30 00:30:37;;;;;;;380.57;364.40;;;4.70;99.90;;;;;;4363292;32;20160;-62
2021/11/30 00:33:05;;;;;;;381.63;365.43;;;4.70;99.90;;;;;;4363276;32;20565;-60
2021/11/30 00:35:32;;;;;;;374.80;358.83;;;4.70;99.90;;;;;;4361433;33;20152;-62
2021/11/30 00:38:00;;;;;;;382.73;366.50;;;4.80;99.90;;;;;;4362083;32;20195;-61
2021/11/30 00:40:27;;;;;;;390.10;373.53;;;4.80;99.90;;;;;;4367357;32;20202;-60
2021/11/30 00:42:57;;;;;;;389.17;372.53;;;4.80;99.90;;;;;;4376991;32;20160;-61
2021/11/30 00:45:25;;;;;;;388.10;371.37;;;4.80;99.90;;;;;;4375716;32;20160;-61
2021/11/30 00:47:55;;;;;;;390.97;373.90;;;4.80;99.90;;;;;;4376367;32;20136;-61
2021/11/30 00:50:28;;;;;;;385.23;368.73;;;4.70;99.90;;;;;;4376369;32;20626;-60
2021/11/30 00:52:56;;;;;;;393.00;375.90;;;4.70;99.90;;;;;;4376919;32;20656;-60
2021/11/30 00:55:23;;;;;;;394.23;377.17;;;4.80;99.90;;;;;;4376276;32;20155;-61
2021/11/30 00:57:53;;;;;;;404.17;386.93;;;4.70;99.90;;;;;;4376100;32;20179;-60
2021/11/30 01:00:21;;;;;;;398.13;381.07;;;4.70;99.90;;;;;;4377786;32;20579;-60
2021/11/30 01:02:49;;;;;;;401.83;384.47;;;4.70;99.90;;;;;;4375908;32;20160;-60
2021/11/30 01:05:18;;;;;;;406.07;388.93;;;4.60;99.90;;;;;;4375911;32;20159;-61
2021/11/30 01:07:45;;;;;;;407.17;390.03;;;4.60;99.90;;;;;;4368558;32;20168;-61
2021/11/30 01:10:15;;;;;;;395.93;378.97;;;4.60;99.90;;;;;;4362673;32;20216;-61
2021/11/30 01:12:43;;;;;;;401.73;384.33;;;4.60;99.90;;;;;;4362610;32;20156;-61
2021/11/30 01:15:14;;;;;;;393.20;376.47;;;4.60;99.90;;;;;;4360850;33;20192;-61
2021/11/30 01:17:42;;;;;;;393.10;376.30;;;4.60;99.90;;;;;;4362280;32;20163;-62
2021/11/30 01:20:11;;;;;;;396.23;379.80;;;4.60;99.90;;;;;;4371333;32;20410;-60
2021/11/30 01:22:39;;;;;;;396.83;379.63;;;4.50;99.90;;;;;;4377478;32;20557;-61
2021/11/30 01:25:06;;;;;;;395.33;378.47;;;4.50;99.90;;;;;;4375758;32;20178;-61
2021/11/30 01:27:33;;;;;;;394.10;377.43;;;4.50;99.90;;;;;;4375989;32;20148;-62
2021/11/30 01:30:00;;;;;;;395.07;378.33;;;4.50;99.90;;;;;;4375626;32;20191;-61
2021/11/30 01:32:26;;;;;;;390.27;373.33;;;4.40;99.90;;;;;;4376910;32;20528;-61
2021/11/30 01:34:55;;;;;;;408.60;390.90;;;4.40;99.90;;;;;;4376836;32;20159;-61
2021/11/30 01:37:22;;;;;;;394.47;377.60;;;4.40;99.90;;;;;;4376818;32;20568;-59
2021/11/30 01:39:49;;;;;;;397.17;379.53;;;4.40;99.90;;;;;;4376980;32;20140;-60
2021/11/30 01:42:16;;;;;;;397.37;380.20;;;4.40;99.90;;;;;;4376643;32;20149;-59
2021/11/30 01:44:49;;;;;;;421.47;403.17;;;4.40;99.90;;;;;;4375321;32;20214;-61
2021/11/30 01:47:40;;;;;;;419.63;401.23;;;4.40;99.90;;;;;;4371754;32;20152;-61
2021/11/30 01:50:11;;;;;;;422.70;403.70;;;4.40;99.90;;;;;;4362057;32;20145;-60
2021/11/30 01:52:38;;;;;;;433.03;413.87;;;4.50;99.90;;;;;;4362193;32;20212;-60
2021/11/30 01:55:07;;;;;;;430.30;410.77;;;4.40;99.90;;;;;;4375865;32;20537;-60
2021/11/30 01:57:34;;;;;;;434.10;414.57;;;4.40;99.90;;;;;;4375446;32;20186;-63
2021/11/30 02:00:00;;;;;;;440.40;420.17;;;4.40;99.90;;;;;;4377222;32;20490;-61
2021/11/30 02:02:27;;;;;;;449.30;428.63;;;4.40;99.90;;;;;;4377879;32;20157;-62
2021/11/30 02:04:54;;;;;;;447.13;426.23;;;4.40;99.90;;;;;;4379602;32;20219;-61
2021/11/30 02:07:22;;;;;;;434.10;414.03;;;4.50;99.90;;;;;;4378523;32;20161;-62
2021/11/30 02:09:49;;;;;;;431.30;411.43;;;4.50;99.90;;;;;;4379917;32;20485;-61
2021/11/30 02:12:16;;;;;;;432.60;412.97;;;4.50;99.90;;;;;;4378479;32;20162;-61
2021/11/30 02:14:45;;;;;;;434.47;415.00;;;4.60;99.90;;;;;;4374949;32;20604;-61
2021/11/30 02:17:13;;;;;;;417.30;398.53;;;4.60;99.90;;;;;;4365088;32;20212;-62
2021/11/30 02:19:47;;;;;;;420.90;401.77;;;4.60;99.90;;;;;;4363456;33;20141;-61
2021/11/30 02:22:14;;;;;;;423.13;404.17;;;4.70;99.90;;;;;;4369039;32;20206;-62
2021/11/30 02:24:41;;;;;;;416.13;397.77;;;4.70;99.90;;;;;;4379555;32;20163;-61
2021/11/30 02:27:08;;;;;;;419.33;400.73;;;4.70;99.90;;;;;;4379661;32;20572;-61
2021/11/30 02:29:36;;;;;;;421.57;402.53;;;4.70;99.90;;;;;;4378210;32;20159;-61
2021/11/30 02:32:04;;;;;;;409.67;391.50;;;4.70;99.90;;;;;;4379936;32;20176;-61
2021/11/30 02:34:31;;;;;;;418.83;400.07;;;4.80;99.90;;;;;;4377830;32;20175;-61
2021/11/30 02:37:05;;;;;;;413.77;395.30;;;4.80;99.90;;;;;;4379254;32;20623;-61
2021/11/30 02:39:33;;;;;;;432.07;412.83;;;4.80;99.90;;;;;;4379447;32;20205;-61
2021/11/30 02:42:02;;;;;;;425.07;406.17;;;4.90;99.90;;;;;;4374103;32;20259;-60
2021/11/30 02:44:29;;;;;;;424.33;405.40;;;4.90;99.90;;;;;;4369150;32;20599;-59
2021/11/30 02:46:59;;;;;;;433.10;413.73;;;4.90;99.90;;;;;;4377948;32;20168;-61
2021/11/30 02:49:28;;;;;;;422.93;404.23;;;4.90;99.90;;;;;;4377251;32;20187;-62
2021/11/30 02:52:02;;;;;;;439.93;420.57;;;5.00;99.90;;;;;;4378925;32;20162;-58
2021/11/30 02:54:31;;;;;;;427.60;409.00;;;5.00;99.90;;;;;;4377940;32;20128;-60
2021/11/30 02:57:00;;;;;;;423.50;404.80;;;5.10;99.90;;;;;;4379451;32;20198;-60
2021/11/30 02:59:30;;;;;;;435.57;416.57;;;5.10;99.90;;;;;;4377845;32;20568;-60
2021/11/30 03:01:59;;;;;;;433.03;414.23;;;5.20;99.90;;;;;;4379085;32;20516;-60
2021/11/30 03:04:26;;;;;;;432.40;413.30;;;5.20;99.90;;;;;;4378730;32;20603;-60
2021/11/30 03:06:54;;;;;;;452.10;432.27;;;5.20;99.90;;;;;;4378365;32;20155;-60
2021/11/30 03:09:20;;;;;;;439.27;419.83;;;5.30;99.90;;;;;;4377245;32;20203;-60
2021/11/30 03:11:49;;;;;;;426.63;407.87;;;5.30;99.90;;;;;;4378866;32;20509;-60
2021/11/30 03:14:16;;;;;;;441.17;421.73;;;5.40;99.90;;;;;;4378727;32;20186;-60
2021/11/30 03:16:45;;;;;;;456.00;435.73;;;5.40;99.90;;;;;;4377352;32;20156;-60
2021/11/30 03:19:12;;;;;;;439.43;420.00;;;5.40;99.90;;;;;;4378893;32;20144;-61
2021/11/30 03:21:39;;;;;;;452.00;431.97;;;5.50;99.90;;;;;;4364262;32;20160;-60
2021/11/30 03:24:06;;;;;;;456.70;436.50;;;5.50;99.90;;;;;;4368340;32;20152;-60
2021/11/30 03:26:36;;;;;;;457.37;436.80;;;5.50;99.90;;;;;;4376642;32;20153;-61
2021/11/30 03:29:04;;;;;;;437.97;418.70;;;5.60;99.90;;;;;;4369479;32;20507;-60
2021/11/30 03:31:46;;;;;;;458.77;438.17;;;5.70;99.90;;;;;;4362490;32;20251;-61
2021/11/30 03:34:15;;;;;;;449.50;429.77;;;5.70;99.90;;;;;;4372709;32;20144;-60
2021/11/30 03:36:43;;;;;;;446.07;426.53;;;5.70;99.90;;;;;;4378459;32;20140;-60
2021/11/30 03:39:13;;;;;;;445.83;426.33;;;5.70;99.90;;;;;;4377252;32;20603;-61
2021/11/30 03:41:41;;;;;;;461.37;440.97;;;5.80;99.90;;;;;;4376616;32;20175;-61
2021/11/30 03:44:10;;;;;;;452.60;432.63;;;5.80;99.90;;;;;;4376966;32;20160;-61
2021/11/30 03:46:37;;;;;;;452.00;432.17;;;5.80;99.90;;;;;;4376712;32;20198;-61
2021/11/30 03:49:06;;;;;;;445.40;425.80;;;5.90;99.90;;;;;;4378727;32;20550;-61
2021/11/30 03:51:34;;;;;;;441.60;422.20;;;5.90;99.90;;;;;;4378351;32;20498;-62
2021/11/30 03:54:01;;;;;;;460.17;439.73;;;5.90;99.90;;;;;;4376976;32;20180;-61
2021/11/30 03:56:28;;;;;;;464.23;443.30;;;5.90;99.90;;;;;;4376326;32;20164;-62
2021/11/30 03:58:55;;;;;;;449.47;429.37;;;6.00;99.90;;;;;;4378592;32;20220;-61
2021/11/30 04:01:24;;;;;;;450.73;430.53;;;6.00;99.90;;;;;;4378638;32;20157;-62
2021/11/30 04:03:51;;;;;;;451.40;431.17;;;6.00;99.90;;;;;;4378484;32;20637;-61
2021/11/30 04:06:18;;;;;;;449.83;429.60;;;6.10;99.90;;;;;;4378662;32;20151;-61
2021/11/30 04:08:45;;;;;;;452.43;432.30;;;6.10;99.90;;;;;;4376634;32;20153;-60
2021/11/30 04:11:12;;;;;;;462.00;441.17;;;6.10;99.90;;;;;;4377692;32;20164;-62
2021/11/30 04:13:38;;;;;;;466.70;445.67;;;6.20;99.90;;;;;;4378434;32;20187;-62
2021/11/30 04:16:08;;;;;;;452.03;431.93;;;6.30;99.90;;;;;;4378399;32;20160;-61
2021/11/30 04:18:37;;;;;;;456.23;435.77;;;6.40;99.90;;;;;;4377082;32;20211;-62
2021/11/30 04:21:04;;;;;;;458.10;437.53;;;6.40;99.90;;;;;;4376672;32;20684;-61
2021/11/30 04:23:33;;;;;;;449.53;429.37;;;6.50;99.90;;;;;;4377475;32;20221;-61
2021/11/30 04:26:00;;;;;;;448.17;428.13;;;6.50;99.90;;;;;;4376336;32;20198;-62
2021/11/30 04:28:27;;;;;;;461.60;440.77;;;6.60;99.90;;;;;;4376571;32;20152;-62
2021/11/30 04:30:54;;;;;;;463.10;442.27;;;6.70;99.90;;;;;;4376472;32;20148;-62
2021/11/30 04:33:21;;;;;;;464.60;443.67;;;6.90;99.90;;;;;;4378091;32;20591;-61
2021/11/30 04:35:49;;;;;;;456.23;435.43;;;7.00;99.90;;;;;;4378210;32;20541;-61
2021/11/30 04:38:16;;;;;;;466.80;445.90;;;7.10;99.90;;;;;;4376389;32;20156;-61
2021/11/30 04:40:43;;;;;;;443.80;423.80;;;7.20;99.90;;;;;;4376286;32;20220;-62
2021/11/30 04:43:10;;;;;;;442.67;422.73;;;7.40;99.90;;;;;;4375983;32;20186;-62
2021/11/30 04:45:50;;;;;;;460.90;439.93;;;7.50;99.90;;;;;;4374058;32;20174;-61
2021/11/30 04:48:17;;;;;;;469.40;447.80;;;7.60;99.90;;;;;;4377697;32;20464;-62
2021/11/30 04:50:48;;;;;;;470.70;448.87;;;7.70;99.90;;;;;;4377922;32;20137;-61
2021/11/30 04:53:19;;;;;;;482.87;460.67;;;7.80;99.90;;;;;;4376094;32;20172;-61
2021/11/30 04:55:47;;;;;;;467.23;445.73;;;7.80;99.90;;;;;;4376087;32;20140;-61
2021/11/30 04:58:14;;;;;;;475.13;453.20;;;7.80;99.90;;;;;;4375951;32;20156;-62
2021/11/30 05:00:44;;;;;;;476.47;453.93;;;7.90;99.90;;;;;;4376112;32;20213;-61
2021/11/30 05:03:11;;;;;;;491.90;468.83;;;8.00;99.90;;;;;;4376961;32;20141;-61
2021/11/30 05:05:38;;;;;;;483.20;460.70;;;8.00;99.90;;;;;;4375545;32;20216;-61
2021/11/30 05:08:05;;;;;;;487.23;464.20;;;8.10;99.90;;;;;;4375590;32;20144;-62
2021/11/30 05:10:33;;;;;;;499.50;475.97;;;8.10;99.90;;;;;;4375963;32;20160;-61
2021/11/30 05:13:01;;;;;;;490.23;467.37;;;8.10;99.90;;;;;;4375807;32;20167;-61
2021/11/30 05:15:28;;;;;;;486.57;464.03;;;8.20;99.90;;;;;;4375824;32;20136;-61
2021/11/30 05:17:55;;;;;;;489.13;466.00;;;8.20;99.90;;;;;;4377252;32;20160;-61
2021/11/30 05:20:22;;;;;;;490.53;467.10;;;8.20;99.90;;;;;;4362258;32;20168;-61
2021/11/30 05:22:50;;;;;;;493.70;470.33;;;8.30;99.90;;;;;;4362425;32;20141;-61
2021/11/30 05:25:18;;;;;;;515.00;490.33;;;8.20;99.90;;;;;;4375653;32;20506;-60
2021/11/30 05:27:48;;;;;;;502.03;477.97;;;8.30;99.90;;;;;;4377442;32;20182;-61
2021/11/30 05:30:18;;;;;;;485.53;462.37;;;8.40;99.90;;;;;;4375742;32;20146;-61
2021/11/30 05:32:46;;;;;;;498.17;475.03;;;8.40;99.90;;;;;;4375287;32;20216;-60
2021/11/30 05:35:13;;;;;;;498.37;475.13;;;8.40;99.90;;;;;;4376390;32;20219;-62
2021/11/30 05:37:39;;;;;;;486.87;464.13;;;8.40;99.90;;;;;;4376668;32;20241;-62
2021/11/30 05:40:08;;;;;;;480.50;457.87;;;8.40;99.90;;;;;;4377157;32;20177;-62
2021/11/30 05:42:35;;;;;;;490.97;467.73;;;8.40;99.90;;;;;;4375779;32;20553;-62
2021/11/30 05:45:04;;;;;;;497.43;473.97;;;8.50;99.90;;;;;;4376966;32;20248;-62
2021/11/30 05:47:30;;;;;;;492.50;468.90;;;8.50;99.90;;;;;;4376045;32;20186;-61
2021/11/30 05:49:57;;;;;;;494.87;471.07;;;8.50;99.90;;;;;;4375329;32;20160;-61
2021/11/30 05:52:25;;;;;;;530.07;504.80;;;8.50;99.90;;;;;;4375268;32;20144;-61
2021/11/30 05:54:53;;;;;;;500.63;476.60;;;8.60;99.90;;;;;;4376763;32;20489;-61
2021/11/30 05:57:22;;;;;;;491.63;468.03;;;8.50;99.90;;;;;;4378504;32;20150;-61
2021/11/30 05:59:49;;;;;;;499.93;475.90;;;8.50;99.90;;;;;;4375510;32;20145;-61
2021/11/30 06:02:19;;;;;;;520.40;494.53;;;8.60;99.90;;;;;;4375450;32;20145;-61
2021/11/30 06:04:46;;;;;;;501.87;477.20;;;8.60;99.90;;;;;;4374695;32;20147;-61
2021/11/30 06:07:14;;;;;;;498.63;474.70;;;8.60;99.90;;;;;;4376226;32;20140;-61
2021/11/30 06:09:41;;;;;;;517.37;491.83;;;8.60;99.90;;;;;;4376330;32;20160;-62
2021/11/30 06:12:08;;;;;;;505.43;481.50;;;8.60;99.90;;;;;;4375749;32;20591;-61
2021/11/30 06:14:35;;;;;;;494.93;470.90;;;8.70;99.90;;;;;;4373142;32;20163;-62
2021/11/30 06:17:02;;;;;;;524.97;499.07;;;8.70;99.90;;;;;;4373548;32;20219;-61
2021/11/30 06:19:30;;;;;;;513.10;487.83;;;8.70;99.90;;;;;;4375381;32;20487;-61
2021/11/30 06:21:57;;;;;;;511.77;486.60;;;8.70;99.90;;;;;;4373795;32;20159;-61
2021/11/30 06:24:24;;;;;;;504.37;479.90;;;8.70;99.90;;;;;;4371992;32;20243;-61
2021/11/30 06:26:51;;;;;;;522.13;496.43;;;8.70;99.90;;;;;;4374977;32;20172;-60
2021/11/30 06:29:18;;;;;;;516.10;490.97;;;8.70;99.90;;;;;;4373447;32;20219;-61
2021/11/30 06:31:45;;;;;;;510.57;485.80;;;8.70;99.90;;;;;;4375241;32;20160;-61
2021/11/30 06:34:12;;;;;;;518.90;493.87;;;8.80;99.90;;;;;;4371415;32;20190;-61
2021/11/30 06:36:40;;;;;;;507.83;482.80;;;8.80;99.90;;;;;;4372543;32;20152;-61
2021/11/30 06:39:07;;;;;;;519.13;493.10;;;8.80;99.90;;;;;;4371699;32;20225;-61
2021/11/30 06:41:34;;;;;;;513.17;487.53;;;8.80;99.90;;;;;;4374653;32;20581;-60
2021/11/30 06:44:01;;;;;;;513.97;487.73;;;8.80;99.90;;;;;;4373956;32;20236;-61
2021/11/30 06:46:28;;;;;;;541.63;513.80;;;8.80;99.90;;;;;;4373245;32;20162;-61
2021/11/30 06:48:55;;;;;;;507.07;481.57;;;8.80;99.90;;;;;;4377568;32;20181;-60
2021/11/30 06:51:22;;;;;;;513.67;488.17;;;8.80;99.90;;;;;;4375265;32;20152;-61
2021/11/30 06:53:50;;;;;;;510.67;484.87;;;8.80;99.90;;;;;;4376204;32;20175;-61
2021/11/30 06:56:17;;;;;;;508.23;482.50;;;8.80;99.90;;;;;;4375291;32;20153;-61
2021/11/30 06:58:44;;;;;;;507.27;482.83;;;8.80;99.90;;;;;;4375283;32;20257;-61
2021/11/30 07:01:12;;;;;;;511.97;486.10;;;8.80;99.90;;;;;;4376002;32;20150;-61
2021/11/30 07:03:42;;;;;;;494.10;469.50;;;8.80;99.90;;;;;;4374979;32;20237;-62
2021/11/30 07:06:16;;;;;;;498.10;474.10;;;8.90;99.90;;;;;;4374650;32;20145;-61
2021/11/30 07:08:53;;;;;;;497.50;472.93;;;8.90;99.90;;;;;;4377724;32;20182;-61
2021/11/30 07:11:34;;;;;;;495.67;472.23;;;8.90;99.90;;;;;;4374610;32;20180;-62
2021/11/30 07:14:01;;;;;;;502.70;477.37;;;8.90;99.90;;;;;;4378433;32;20445;-62
2021/11/30 07:16:28;;;;;;;507.97;483.03;;;8.90;99.90;;;;;;4376805;32;20145;-61
2021/11/30 07:18:55;;;;;;;507.83;483.30;;;8.90;99.90;;;;;;4379302;32;20570;-62
2021/11/30 07:21:22;;;;;;;500.40;475.90;;;9.00;99.90;;;;;;4373902;32;20154;-60
2021/11/30 07:23:52;;;;;;;495.90;471.43;;;9.00;99.90;;;;;;4378099;32;20554;-61
2021/11/30 07:26:20;;;;;;;494.63;470.50;;;9.00;99.90;;;;;;4375763;32;20238;-61
2021/11/30 07:31:30;;;;;;;498.13;474.03;;;9.00;99.90;;;;;;4378040;32;20175;-62
2021/11/30 07:34:00;;;;;;;497.77;473.50;;;9.00;99.90;;;;;;4375848;32;20146;-61
2021/11/30 07:36:28;;;;;;;504.73;480.07;;;9.10;99.90;;;;;;4375511;32;20173;-61
2021/11/30 07:38:55;;;;;;;506.40;482.20;;;9.10;99.90;;;;;;4377439;32;20148;-61
2021/11/30 07:41:24;;;;;;;516.93;492.23;;;9.10;99.90;;;;;;4372795;32;20148;-61
2021/11/30 07:43:51;;;;;;;514.30;488.73;;;9.10;99.90;;;;;;4384890;32;20155;-61
2021/11/30 07:46:18;;;;;;;498.63;474.83;;;9.10;99.90;;;;;;4373779;32;20184;-62
2021/11/30 07:48:45;;;;;;;512.50;488.17;;;9.20;99.90;;;;;;4376975;32;20601;-61
2021/11/30 07:51:15;;;;;;;498.43;474.90;;;9.10;99.90;;;;;;4374218;32;20475;-62
2021/11/30 07:53:43;;;;;;;503.77;478.17;;;9.10;99.90;;;;;;4377428;32;20519;-60
2021/11/30 07:56:10;;;;;;;526.90;501.57;;;9.10;99.90;;;;;;4375449;32;20229;-60
2021/11/30 07:58:38;;;;;;;506.07;481.20;;;9.10;99.90;;;;;;4376452;32;20568;-62
2021/11/30 08:01:05;;;;;;;497.93;474.60;;;9.20;99.90;;;;;;4373250;32;20150;-62
2021/11/30 08:03:32;;;;;;;509.70;485.23;;;9.20;99.90;;;;;;4376498;32;20172;-62
2021/11/30 08:05:59;;;;;;;511.00;487.00;;;9.20;99.90;;;;;;4369463;32;20248;-62
2021/11/30 08:08:26;;;;;;;498.37;474.83;;;9.20;99.90;;;;;;4374234;32;20176;-62
2021/11/30 08:10:53;;;;;;;500.93;476.97;;;9.20;99.90;;;;;;4372048;32;20161;-61
2021/11/30 08:13:20;;;;;;;520.00;494.67;;;9.30;99.90;;;;;;4377516;32;20156;-62
2021/11/30 08:15:48;;;;;;;508.20;484.10;;;9.30;99.90;;;;;;4371086;32;20225;-61
2021/11/30 08:18:15;;;;;;;490.73;467.53;;;9.30;99.90;;;;;;4368715;32;20171;-62
2021/11/30 08:20:42;;;;;;;499.10;475.53;;;9.30;99.90;;;;;;4373188;32;20160;-61
2021/11/30 08:23:10;;;;;;;492.17;469.03;;;9.30;99.90;;;;;;4368732;32;20150;-61
2021/11/30 08:25:37;;;;;;;508.43;484.10;;;9.30;99.90;;;;;;4371874;32;20198;-62
2021/11/30 08:28:05;;;;;;;520.70;496.67;;;9.30;99.90;;;;;;4374046;32;20225;-62
2021/11/30 08:30:31;;;;;;;526.07;500.97;;;9.30;99.90;;;;;;4375298;32;20173;-62
2021/11/30 08:33:00;;;;;;;517.27;492.60;;;9.40;99.90;;;;;;4373240;32;20502;-62
2021/11/30 08:35:27;;;;;;;509.33;485.83;;;9.40;99.90;;;;;;4371993;32;20597;-62
2021/11/30 08:37:54;;;;;;;504.03;480.43;;;9.40;99.90;;;;;;4376672;32;20211;-61
2021/11/30 08:40:22;;;;;;;515.50;491.13;;;9.40;99.90;;;;;;4376851;32;20163;-62
2021/11/30 08:42:49;;;;;;;513.53;489.27;;;9.50;99.90;;;;;;4376731;32;20163;-61
2021/11/30 08:45:16;;;;;;;497.70;474.97;;;9.50;99.90;;;;;;4375350;32;20601;-61
2021/11/30 08:47:43;;;;;;;517.70;493.60;;;9.50;99.90;;;;;;4372813;32;20147;-61
2021/11/30 08:50:15;;;;;;;514.80;490.20;;;9.50;99.90;;;;;;4372875;32;20157;-62
2021/11/30 08:52:42;;;;;;;507.23;483.40;;;9.50;99.90;;;;;;4369778;32;20206;-61
2021/11/30 08:55:11;;;;;;;502.00;478.93;;;9.50;99.90;;;;;;4373937;32;20168;-61
2021/11/30 08:57:38;;;;;;;500.30;477.13;;;9.50;99.90;;;;;;4372987;32;20504;-62
2021/11/30 09:00:09;;;;;;;514.43;490.07;;;9.50;99.90;;;;;;4376547;32;20156;-62
2021/11/30 09:02:36;;;;;;;519.10;495.13;;;9.60;99.90;;;;;;4374941;32;20484;-61
2021/11/30 09:05:05;;;;;;;512.50;488.97;;;9.60;99.90;;;;;;4375003;32;20227;-62
2021/11/30 09:07:33;;;;;;;502.27;478.70;;;9.60;99.90;;;;;;4375112;32;20591;-62
2021/11/30 09:10:01;;;;;;;537.83;512.63;;;9.70;99.90;;;;;;4374153;32;20174;-62
2021/11/30 09:12:28;;;;;;;511.73;488.30;;;9.60;99.90;;;;;;4374619;32;20573;-62
2021/11/30 09:14:59;;;;;;;507.53;484.07;;;9.70;99.90;;;;;;4374614;32;20584;-62
2021/11/30 09:17:26;;;;;;;514.63;490.67;;;9.70;99.90;;;;;;4376464;32;20531;-61
2021/11/30 09:19:52;;;;;;;519.20;494.57;;;9.70;99.90;;;;;;4374598;32;20178;-61
2021/11/30 09:22:21;;;;;;;504.27;480.93;;;9.70;99.90;;;;;;4376217;32;20600;-62
2021/11/30 09:24:49;;;;;;;504.97;481.73;;;9.70;99.90;;;;;;4375898;32;20162;-63
2021/11/30 09:27:16;;;;;;;510.13;486.07;;;9.70;99.90;;;;;;4373209;32;20148;-62
2021/11/30 09:29:45;;;;;;;533.60;508.50;;;9.70;99.90;;;;;;4375170;32;20186;-62
2021/11/30 09:32:12;;;;;;;530.30;505.17;;;9.70;99.90;;;;;;4372989;32;20160;-62
2021/11/30 09:34:39;;;;;;;509.23;485.10;;;9.70;99.90;;;;;;4367144;32;20183;-62
2021/11/30 09:37:10;;;;;;;506.03;482.60;;;9.70;99.90;;;;;;4373090;32;20210;-62
2021/11/30 09:39:37;;;;;;;507.87;483.30;;;9.70;99.90;;;;;;4374323;32;20201;-62
2021/11/30 09:42:07;;;;;;;508.80;484.97;;;9.80;99.90;;;;;;4372105;32;20149;-63
2021/11/30 09:44:34;;;;;;;513.47;488.40;;;9.80;99.90;;;;;;4374698;32;20640;-62
2021/11/30 09:47:02;;;;;;;535.60;509.80;;;9.70;99.90;;;;;;4371993;32;20236;-62
2021/11/30 09:49:29;;;;;;;539.60;513.70;;;9.80;99.90;;;;;;4374461;32;20160;-62
2021/11/30 09:51:56;;;;;;;512.90;488.00;;;9.80;99.90;;;;;;4374995;32;20176;-62
2021/11/30 09:54:23;;;;;;;516.20;491.27;;;9.80;99.90;;;;;;4374675;32;20211;-62
2021/11/30 09:56:50;;;;;;;496.63;471.60;;;9.80;99.90;;;;;;4371466;32;20167;-63
2021/11/30 09:59:18;;;;;;;513.63;489.00;;;9.80;99.90;;;;;;4375493;32;20575;-62
2021/11/30 10:01:45;;;;;;;527.63;501.90;;;9.80;99.90;;;;;;4376833;32;20206;-63
2021/11/30 10:04:12;;;;;;;528.53;502.17;;;9.90;99.90;;;;;;4376277;32;20565;-61
2021/11/30 10:06:39;;;;;;;508.37;484.03;;;9.80;99.90;;;;;;4376505;32;20157;-62
2021/11/30 10:09:16;;;;;;;513.27;488.30;;;9.80;99.90;;;;;;4377229;32;20556;-62
2021/11/30 10:11:43;;;;;;;501.70;478.63;;;9.80;99.90;;;;;;4374913;32;20289;-61
2021/11/30 10:14:23;;;;;;;501.63;478.43;;;9.60;99.90;;;;;;4375446;32;20197;-63
2021/11/30 10:17:18;;;;;;;520.40;496.10;;;9.50;99.90;;;;;;4376411;32;20210;-63
2021/11/30 10:19:53;;;;;;;505.40;482.23;;;9.40;99.90;;;;;;4375413;32;20257;-63
2021/11/30 10:22:42;;;;;;;514.70;491.10;;;9.40;99.90;;;;;;4371702;32;20171;-63
2021/11/30 10:25:11;;;;;;;516.80;492.83;;;9.40;99.90;;;;;;4364964;32;20150;-63
2021/11/30 10:27:43;;;;;;;500.80;478.13;;;9.30;99.90;;;;;;4374278;32;20177;-62
2021/11/30 10:30:17;;;;;;;508.17;484.90;;;9.30;99.90;;;;;;4374799;32;20151;-63
2021/11/30 10:32:47;;;;;;;511.23;488.03;;;9.20;99.90;;;;;;4376457;32;20211;-63
2021/11/30 10:35:17;;;;;;;516.50;492.30;;;9.20;99.90;;;;;;4377976;32;20157;-63
2021/11/30 10:37:47;;;;;;;501.87;479.07;;;9.30;99.90;;;;;;4373821;32;20285;-62
2021/11/30 10:40:16;;;;;;;492.87;470.57;;;9.20;99.90;;;;;;4378592;32;20164;-62
2021/11/30 10:42:46;;;;;;;501.10;478.23;;;9.20;99.90;;;;;;4376287;32;20167;-62
2021/11/30 10:45:25;;;;;;;509.47;485.93;;;9.20;99.90;;;;;;4377803;32;20149;-61
2021/11/30 10:47:52;;;;;;;504.63;481.67;;;9.20;99.90;;;;;;4378852;32;20174;-62
2021/11/30 10:50:23;;;;;;;520.03;496.17;;;9.20;99.90;;;;;;4379348;32;20216;-62
2021/11/30 10:52:51;;;;;;;527.73;503.40;;;9.20;99.90;;;;;;4377598;32;20203;-62
2021/11/30 10:55:19;;;;;;;524.60;500.17;;;9.20;99.90;;;;;;4379050;32;20151;-64
2021/11/30 10:57:49;;;;;;;557.00;529.83;;;9.30;99.90;;;;;;4379013;32;20150;-61
2021/11/30 11:00:23;;;;;;;559.37;532.47;;;9.40;99.90;;;;;;4377602;32;20149;-62
2021/11/30 11:02:55;;;;;;;531.33;505.80;;;9.40;99.90;;;;;;4379314;32;20454;-62
2021/11/30 11:05:28;;;;;;;546.67;520.57;;;9.30;99.90;;;;;;4377715;32;20260;-64
2021/11/30 11:08:04;;;;;;;534.83;509.10;;;9.30;99.90;;;;;;4379376;32;20137;-62
2021/11/30 11:10:38;;;;;;;546.73;520.17;;;9.30;99.90;;;;;;4380887;32;20164;-62
2021/11/30 11:13:25;;;;;;;531.03;505.77;;;9.30;99.90;;;;;;4375839;32;20191;-63
2021/11/30 11:15:56;;;;;;;531.03;505.97;;;9.30;99.90;;;;;;4376803;32;20471;-63
2021/11/30 11:18:26;;;;;;;541.13;514.97;;;9.30;99.90;;;;;;4377313;32;20322;-62
2021/11/30 11:21:09;;;;;;;558.27;531.37;;;9.20;99.90;;;;;;4379188;32;20600;-62
2021/11/30 11:23:38;;;;;;;523.07;498.07;;;9.20;99.90;;;;;;4377664;32;20612;-63
2021/11/30 11:26:19;;;;;;;553.53;527.23;;;9.20;99.90;;;;;;4378663;32;20153;-63
2021/11/30 11:29:00;;;;;;;526.93;502.33;;;9.20;99.90;;;;;;4378776;32;20173;-62
2021/11/30 11:31:31;;;;;;;505.40;482.10;;;9.30;99.90;;;;;;4379501;32;20166;-62
2021/11/30 11:34:01;;;;;;;549.27;522.87;;;9.30;99.90;;;;;;4378215;32;20150;-63
2021/11/30 11:36:28;;;;;;;539.83;514.07;;;9.30;99.90;;;;;;4378926;32;20147;-63
2021/11/30 11:38:56;;;;;;;552.67;526.10;;;9.20;99.90;;;;;;4365995;32;20157;-64
2021/11/30 11:41:24;;;;;;;558.07;531.03;;;9.30;99.90;;;;;;4378828;32;20160;-62
2021/11/30 11:43:52;;;;;;;520.30;495.50;;;9.40;99.90;;;;;;4377661;32;20165;-62
2021/11/30 11:46:20;;;;;;;532.67;506.97;;;9.30;99.90;;;;;;4376967;32;20151;-64
2021/11/30 11:48:56;;;;;;;518.57;493.83;;;9.20;99.90;;;;;;4376184;32;20259;-62
2021/11/30 11:51:24;;;;;;;559.20;532.47;;;9.30;99.90;;;;;;4378572;32;20141;-63
2021/11/30 11:53:54;;;;;;;540.00;514.07;;;9.30;99.90;;;;;;4377211;32;20170;-62
2021/11/30 11:56:24;;;;;;;528.73;503.60;;;9.30;99.90;;;;;;4377191;32;20226;-62
2021/11/30 11:59:08;;;;;;;538.13;512.47;;;9.20;99.90;;;;;;4377478;32;20557;-63
2021/11/30 12:01:36;;;;;;;538.73;512.40;;;9.20;99.90;;;;;;4376949;32;20146;-62
2021/11/30 12:04:06;;;;;;;548.13;521.53;;;9.20;99.90;;;;;;4376518;32;20176;-62
2021/11/30 12:06:35;;;;;;;557.33;530.50;;;9.20;99.90;;;;;;4378039;32;20155;-63
2021/11/30 12:09:21;;;;;;;532.00;506.50;;;9.30;99.90;;;;;;4376206;32;20155;-62
2021/11/30 12:11:52;;;;;;;539.23;513.80;;;9.20;99.90;;;;;;4376701;32;20160;-62
2021/11/30 12:14:23;;;;;;;554.33;527.33;;;9.30;99.90;;;;;;4375721;32;20175;-62
2021/11/30 12:17:16;;;;;;;544.50;518.63;;;9.30;99.90;;;;;;4375956;32;20149;-62
2021/11/30 12:19:51;;;;;;;526.23;501.77;;;9.30;99.90;;;;;;4380946;32;20225;-63
2021/11/30 12:22:50;;;;;;;536.37;511.10;;;9.20;99.90;;;;;;4375767;32;20523;-61
2021/11/30 12:25:43;;;;;;;523.13;498.70;;;9.20;99.90;;;;;;4370889;32;20640;-63
2021/11/30 12:28:10;;;;;;;532.03;507.30;;;9.30;99.90;;;;;;4376290;32;20179;-63
2021/11/30 12:30:39;;;;;;;537.33;512.17;;;9.30;99.90;;;;;;4375437;32;20230;-64